createdAt,value
2023-07-10T00:01:47.549Z,100796.09
2023-07-10T00:04:17.267Z,100783.56
2023-07-10T00:06:44.799Z,100782.72
2023-07-10T00:09:12.331Z,100771.56
2023-07-10T00:11:42.979Z,100779.47
2023-07-10T00:14:19.034Z,100786.00
2023-07-10T00:16:46.549Z,100786.28
2023-07-10T00:19:14.552Z,100780.00
2023-07-10T00:21:42.515Z,100786.84
2023-07-10T00:24:10.072Z,100773.75
2023-07-10T00:26:38.746Z,100769.94
2023-07-10T00:29:17.675Z,100774.81
2023-07-10T00:31:45.171Z,100773.75
2023-07-10T00:34:15.915Z,100759.59
2023-07-10T00:36:43.772Z,100769.91
2023-07-10T00:39:22.521Z,100771.56
2023-07-10T00:41:54.694Z,100767.19
2023-07-10T00:44:28.975Z,100767.19
2023-07-10T00:46:59.882Z,100779.19
2023-07-10T00:49:33.420Z,100778.34
2023-07-10T00:52:07.474Z,100791.16
2023-07-10T00:54:37.352Z,100784.88
2023-07-10T00:57:11.686Z,100781.34
2023-07-10T00:59:41.781Z,100780.25
2023-07-10T01:02:23.394Z,100784.31
2023-07-10T01:04:56.004Z,100774.50
2023-07-10T01:07:26.264Z,100778.59
2023-07-10T01:09:58.055Z,100776.69
2023-07-10T01:12:26.082Z,100784.00
2023-07-10T01:14:54.915Z,100786.19
2023-07-10T01:17:22.551Z,100795.16
2023-07-10T01:19:51.740Z,100798.63
2023-07-10T01:22:20.782Z,100804.34
2023-07-10T01:24:53.924Z,100813.31
2023-07-10T01:27:23.234Z,100817.19
2023-07-10T01:29:58.187Z,100801.69
2023-07-10T01:32:28.976Z,100810.69
2023-07-10T01:35:00.711Z,100816.66
2023-07-10T01:37:29.594Z,100819.88
2023-07-10T01:39:57.118Z,100823.44
2023-07-10T01:42:25.265Z,100822.13
2023-07-10T01:44:54.052Z,100828.03
2023-07-10T01:47:22.465Z,100836.44
2023-07-10T01:49:54.015Z,100839.16
2023-07-10T01:52:24.054Z,100839.16
2023-07-10T01:54:56.580Z,100845.22
2023-07-10T01:57:25.351Z,100852.19
2023-07-10T01:59:53.071Z,100853.28
2023-07-10T02:02:21.123Z,100845.94
2023-07-10T02:04:48.796Z,100843.19
2023-07-10T02:07:16.295Z,100838.31
2023-07-10T02:09:43.890Z,100843.19
2023-07-10T02:12:12.942Z,100838.84
2023-07-10T02:14:41.440Z,100842.16
2023-07-10T02:17:08.998Z,100837.22
2023-07-10T02:19:36.507Z,100836.34
2023-07-10T02:22:04.162Z,100832.00
2023-07-10T02:24:31.661Z,100834.50
2023-07-10T02:26:59.516Z,100832.31
2023-07-10T02:29:28.336Z,100831.25
2023-07-10T02:31:55.895Z,100835.50
2023-07-10T02:34:23.494Z,100834.06
2023-07-10T02:36:50.982Z,100844.13
2023-07-10T02:39:18.505Z,100838.63
2023-07-10T02:41:45.986Z,100828.06
2023-07-10T02:44:13.493Z,100815.09
2023-07-10T02:46:42.347Z,100809.13
2023-07-10T02:49:09.885Z,100800.75
2023-07-10T02:51:37.432Z,100809.75
2023-07-10T02:54:11.216Z,100797.19
2023-07-10T02:56:38.771Z,100815.34
2023-07-10T02:59:06.618Z,100825.34
2023-07-10T03:01:34.430Z,100834.38
2023-07-10T03:04:03.383Z,100815.22
2023-07-10T03:06:30.863Z,100833.19
2023-07-10T03:08:59.601Z,100833.97
2023-07-10T03:11:27.201Z,100831.84
2023-07-10T03:13:54.916Z,100841.03
2023-07-10T03:16:22.534Z,100844.47
2023-07-10T03:18:50.112Z,100852.78
2023-07-10T03:21:18.975Z,100869.19
2023-07-10T03:23:49.126Z,100868.44
2023-07-10T03:26:16.631Z,100868.75
2023-07-10T03:28:44.284Z,100872.53
2023-07-10T03:31:12.313Z,100870.78
2023-07-10T03:33:39.850Z,100879.69
2023-07-10T03:36:09.561Z,100894.25
2023-07-10T03:38:38.679Z,100907.50
2023-07-10T03:41:06.354Z,100917.78
2023-07-10T03:43:33.895Z,100919.44
2023-07-10T03:46:01.636Z,100922.13
2023-07-10T03:48:29.540Z,100923.63
2023-07-10T03:50:57.030Z,100922.00
2023-07-10T03:53:24.620Z,100934.66
2023-07-10T03:55:55.156Z,100937.88
2023-07-10T03:58:25.626Z,100940.16
2023-07-10T04:00:53.729Z,100931.69
2023-07-10T04:03:24.644Z,100923.28
2023-07-10T04:05:53.893Z,100923.28
2023-07-10T04:08:22.433Z,100915.06
2023-07-10T04:10:51.053Z,100924.72
2023-07-10T04:13:20.533Z,100924.72
2023-07-10T04:16:00.232Z,100936.47
2023-07-10T04:18:29.590Z,100942.13
2023-07-10T04:20:58.027Z,100951.19
2023-07-10T04:23:25.788Z,100942.19
2023-07-10T04:25:53.825Z,100931.38
2023-07-10T04:28:22.711Z,100928.78
2023-07-10T04:30:50.778Z,100933.56
2023-07-10T04:33:18.748Z,100919.25
2023-07-10T04:35:53.774Z,100916.94
2023-07-10T04:38:21.317Z,100912.88
2023-07-10T04:40:56.878Z,100919.91
2023-07-10T04:43:26.680Z,100924.34
2023-07-10T04:45:55.203Z,100926.16
2023-07-10T04:48:23.076Z,100936.75
2023-07-10T04:50:52.842Z,100941.31
2023-07-10T04:53:21.733Z,100954.81
2023-07-10T04:55:50.470Z,100967.19
2023-07-10T04:58:18.214Z,100952.56
2023-07-10T05:00:53.381Z,100954.25
2023-07-10T05:03:20.991Z,100969.97
2023-07-10T05:05:53.310Z,100964.53
2023-07-10T05:08:22.755Z,100977.03
2023-07-10T05:10:51.404Z,100973.47
2023-07-10T05:13:19.847Z,100979.94
2023-07-10T05:15:49.525Z,100983.41
2023-07-10T05:18:17.681Z,100979.34
2023-07-10T05:20:48.249Z,100986.19
2023-07-10T05:23:16.547Z,100992.50
2023-07-10T05:25:55.949Z,100995.81
2023-07-10T05:28:23.651Z,100991.75
2023-07-10T05:30:52.776Z,100995.28
2023-07-10T05:33:20.691Z,100996.91
2023-07-10T05:35:53.195Z,101003.31
2023-07-10T05:38:22.134Z,101002.47
2023-07-10T05:40:49.678Z,101008.50
2023-07-10T05:43:17.675Z,100999.22
2023-07-10T05:45:45.283Z,101002.81
2023-07-10T05:48:15.757Z,101008.88
2023-07-10T05:50:47.911Z,101011.66
2023-07-10T05:53:15.609Z,101015.78
2023-07-10T05:55:45.991Z,101017.69
2023-07-10T05:58:13.684Z,101016.31
2023-07-10T06:00:42.263Z,101019.56
2023-07-10T06:03:30.047Z,101024.56
2023-07-10T06:05:59.747Z,101019.56
2023-07-10T06:08:28.770Z,101028.41
2023-07-10T06:10:56.366Z,101027.38
2023-07-10T06:13:24.007Z,101029.09
2023-07-10T06:15:53.789Z,101028.59
2023-07-10T06:18:23.742Z,101027.78
2023-07-10T06:20:53.170Z,101024.81
2023-07-10T06:23:20.998Z,101022.09
2023-07-10T06:25:48.553Z,101019.50
2023-07-10T06:28:16.886Z,101022.56
2023-07-10T06:30:48.302Z,101028.84
2023-07-10T06:33:18.835Z,101026.16
2023-07-10T06:35:47.682Z,101030.78
2023-07-10T06:38:15.191Z,101035.44
2023-07-10T06:40:42.854Z,101033.81
2023-07-10T06:43:10.754Z,101043.59
2023-07-10T06:45:38.305Z,101045.53
2023-07-10T06:48:06.980Z,101046.91
2023-07-10T06:50:34.520Z,101047.16
2023-07-10T06:53:15.327Z,101052.34
2023-07-10T06:55:55.013Z,101058.69
2023-07-10T06:58:22.623Z,101058.94
2023-07-10T07:00:50.319Z,101058.41
2023-07-10T07:03:18.128Z,101061.13
2023-07-10T07:05:46.403Z,101056.75
2023-07-10T07:08:18.469Z,101055.16
2023-07-10T07:10:47.266Z,101057.34
2023-07-10T07:13:15.247Z,101050.75
2023-07-10T07:15:42.804Z,101055.66
2023-07-10T07:18:10.622Z,101061.13
2023-07-10T07:20:40.111Z,101062.25
2023-07-10T07:23:07.639Z,101064.13
2023-07-10T07:25:36.518Z,101058.97
2023-07-10T07:28:04.946Z,101069.91
2023-07-10T07:30:33.537Z,101062.78
2023-07-10T07:33:01.830Z,101068.22
2023-07-10T07:35:29.563Z,101068.25
2023-07-10T07:37:57.220Z,101058.63
2023-07-10T07:40:24.787Z,101067.09
2023-07-10T07:42:53.646Z,101074.16
2023-07-10T07:45:21.175Z,101062.94
2023-07-10T07:47:48.913Z,101067.03
2023-07-10T07:50:16.867Z,101068.13
2023-07-10T07:52:47.558Z,101068.66
2023-07-10T07:55:15.086Z,101078.50
2023-07-10T07:57:44.429Z,101076.91
2023-07-10T08:00:14.911Z,101080.22
2023-07-10T08:02:42.746Z,101083.47
2023-07-10T08:05:23.879Z,101076.09
2023-07-10T08:07:58.216Z,101079.03
2023-07-10T08:10:25.829Z,101076.28
2023-07-10T08:12:53.426Z,101071.91
2023-07-10T08:15:22.309Z,101070.22
2023-07-10T08:17:49.966Z,101068.28
2023-07-10T08:20:17.669Z,101066.09
2023-07-10T08:22:45.199Z,101075.00
2023-07-10T08:25:12.824Z,101070.09
2023-07-10T08:27:41.917Z,101082.66
2023-07-10T08:30:10.462Z,101075.59
2023-07-10T08:32:39.321Z,101065.66
2023-07-10T08:35:08.069Z,101073.56
2023-07-10T08:37:37.335Z,101079.34
2023-07-10T08:40:05.596Z,101079.38
2023-07-10T08:42:34.177Z,101079.91
2023-07-10T08:45:03.079Z,101084.78
2023-07-10T08:47:37.633Z,101084.91
2023-07-10T08:50:30.339Z,101075.50
2023-07-10T08:53:06.099Z,101074.69
2023-07-10T08:55:52.981Z,101076.41
2023-07-10T08:58:23.023Z,101075.72
2023-07-10T09:00:53.018Z,101081.97
2023-07-10T09:03:39.713Z,101084.78
2023-07-10T09:06:20.353Z,101085.28
2023-07-10T09:08:51.383Z,101074.31
2023-07-10T09:11:20.180Z,101084.97
2023-07-10T09:13:54.300Z,101086.59
2023-07-10T09:16:23.223Z,101090.88
2023-07-10T09:18:54.158Z,101086.53
2023-07-10T09:21:30.961Z,101085.97
2023-07-10T09:23:58.489Z,101086.53
2023-07-10T09:26:31.375Z,101099.94
2023-07-10T09:29:19.048Z,101099.88
2023-07-10T09:31:52.398Z,101105.88
2023-07-10T09:34:22.705Z,101104.56
2023-07-10T09:36:53.543Z,101104.00
2023-07-10T09:39:21.655Z,101104.22
2023-07-10T09:41:49.789Z,101094.59
2023-07-10T09:44:19.361Z,101090.25
2023-07-10T09:46:50.605Z,101094.13
2023-07-10T09:49:22.128Z,101090.72
2023-07-10T09:52:00.497Z,101093.75
2023-07-10T09:54:37.374Z,101094.19
2023-07-10T09:57:11.966Z,101089.66
2023-07-10T09:59:39.854Z,101097.56
2023-07-10T10:02:19.388Z,101083.19
2023-07-10T10:04:52.947Z,101085.53
2023-07-10T10:07:24.448Z,101088.22
2023-07-10T10:10:20.446Z,101090.47
2023-07-10T10:12:55.419Z,101080.22
2023-07-10T10:15:32.235Z,101088.66
2023-07-10T10:18:03.354Z,101078.78
2023-07-10T10:20:34.809Z,101077.31
2023-07-10T10:23:03.766Z,101083.00
2023-07-10T10:25:37.493Z,101086.50
2023-07-10T10:28:26.793Z,101075.09
2023-07-10T10:30:59.314Z,101074.25
2023-07-10T10:33:35.834Z,101078.31
2023-07-10T10:36:19.421Z,101082.59
2023-07-10T10:38:55.192Z,101077.81
2023-07-10T10:41:43.109Z,101071.41
2023-07-10T10:44:19.721Z,101077.81
2023-07-10T10:47:03.094Z,101069.06
2023-07-10T10:49:49.711Z,101074.81
2023-07-10T10:52:26.988Z,101063.44
2023-07-10T10:55:08.764Z,101062.63
2023-07-10T10:57:45.690Z,101073.66
2023-07-10T11:00:29.775Z,101069.13
2023-07-10T11:03:15.141Z,101072.75
2023-07-10T11:05:47.731Z,101058.63
2023-07-10T11:08:20.567Z,101054.66
2023-07-10T11:10:51.656Z,101047.06
2023-07-10T11:13:24.296Z,101046.00
2023-07-10T11:15:52.058Z,101039.97
2023-07-10T11:18:19.932Z,101056.97
2023-07-10T11:20:47.740Z,101050.66
2023-07-10T11:23:35.849Z,101051.56
2023-07-10T11:26:10.368Z,101045.28
2023-07-10T11:28:39.415Z,101045.91
2023-07-10T11:31:30.066Z,101052.06
2023-07-10T11:34:32.816Z,101036.81
2023-07-10T11:37:00.344Z,101045.41
2023-07-10T11:39:33.372Z,101053.97
2023-07-10T11:42:17.403Z,101037.25
2023-07-10T11:44:54.128Z,101037.00
2023-07-10T11:47:28.700Z,101036.44
2023-07-10T11:50:17.861Z,101034.53
2023-07-10T11:52:45.425Z,101032.31
2023-07-10T11:55:16.186Z,101038.84
2023-07-10T11:57:45.006Z,101032.41
2023-07-10T12:00:26.678Z,101035.16
2023-07-10T12:02:55.748Z,101029.97
2023-07-10T12:05:25.709Z,101031.16
2023-07-10T12:08:01.401Z,101015.97
2023-07-10T12:10:32.520Z,101019.56
2023-07-10T12:13:02.895Z,101028.78
2023-07-10T12:15:30.490Z,101029.84
2023-07-10T12:17:58.227Z,101025.47
2023-07-10T12:20:29.882Z,101024.16
2023-07-10T12:23:07.805Z,101023.69
2023-07-10T12:25:35.318Z,101011.19
2023-07-10T12:30:39.443Z,101008.28
2023-07-10T12:33:30.438Z,101010.91
2023-07-10T12:36:03.747Z,101010.75
2023-07-10T12:38:33.813Z,101015.81
2023-07-10T12:41:01.453Z,101005.53
2023-07-10T12:43:30.593Z,101010.22
2023-07-10T12:45:59.649Z,101011.78
2023-07-10T12:48:31.004Z,101006.75
2023-07-10T12:51:01.578Z,101006.25
2023-07-10T12:53:34.784Z,100997.03
2023-07-10T12:56:10.117Z,100992.25
2023-07-10T12:58:39.797Z,100990.31
2023-07-10T13:01:21.148Z,100994.91
2023-07-10T13:04:01.329Z,101000.88
2023-07-10T13:06:28.881Z,100997.13
2023-07-10T13:08:58.598Z,101002.28
2023-07-10T13:11:40.585Z,101003.38
2023-07-10T13:14:30.024Z,101008.38
2023-07-10T13:16:59.085Z,101014.72
2023-07-10T13:19:27.084Z,100995.78
2023-07-10T13:21:54.609Z,100993.00
2023-07-10T13:24:22.149Z,101004.84
2023-07-10T13:26:53.432Z,100999.34
2023-07-10T13:29:22.289Z,100992.94
2023-07-10T13:31:50.015Z,100986.47
2023-07-10T13:34:17.592Z,100984.09
2023-07-10T13:36:45.446Z,100983.50
2023-07-10T13:39:19.916Z,100978.19
2023-07-10T13:41:49.301Z,100984.88
2023-07-10T13:44:16.827Z,100976.22
2023-07-10T13:46:45.702Z,100978.38
2023-07-10T13:49:15.136Z,100972.44
2023-07-10T13:51:43.009Z,100970.84
2023-07-10T13:54:10.700Z,100972.28
2023-07-10T13:56:41.399Z,100971.78
2023-07-10T13:59:14.906Z,100975.44
2023-07-10T14:01:42.493Z,100979.09
2023-07-10T14:04:11.432Z,100972.69
2023-07-10T14:09:57.737Z,100964.94
2023-07-10T14:12:27.303Z,100968.50
2023-07-10T14:14:57.535Z,100958.69
2023-07-10T14:17:28.771Z,100951.91
2023-07-10T14:19:58.090Z,100950.50
2023-07-10T14:22:25.896Z,100954.38
2023-07-10T14:24:53.458Z,100958.97
2023-07-10T14:27:23.103Z,100938.81
2023-07-10T14:29:51.506Z,100947.16
2023-07-10T14:32:20.649Z,100945.22
2023-07-10T14:34:49.042Z,100941.56
2023-07-10T14:37:20.291Z,100937.28
2023-07-10T14:39:49.385Z,100934.94
2023-07-10T14:42:18.799Z,100932.50
2023-07-10T14:44:46.453Z,100933.47
2023-07-10T14:47:29.820Z,100929.63
2023-07-10T14:49:57.505Z,100920.91
2023-07-10T14:52:28.519Z,100921.91
2023-07-10T14:54:57.880Z,100923.69
2023-07-10T14:57:30.488Z,100923.63
2023-07-10T14:59:58.718Z,100923.44
2023-07-10T15:02:27.620Z,100917.56
2023-07-10T15:04:56.088Z,100910.75
2023-07-10T15:07:24.288Z,100915.13
2023-07-10T15:09:53.140Z,100914.13
2023-07-10T15:12:22.500Z,100913.31
2023-07-10T15:14:51.651Z,100911.69
2023-07-10T15:17:22.555Z,100910.69
2023-07-10T15:19:51.578Z,100909.84
2023-07-10T15:22:20.792Z,100912.69
2023-07-10T15:24:50.354Z,100902.69
2023-07-10T15:27:19.192Z,100902.44
2023-07-10T15:29:46.724Z,100896.44
2023-07-10T15:32:17.578Z,100890.72
2023-07-10T15:34:47.053Z,100890.22
2023-07-10T15:37:20.948Z,100901.50
2023-07-10T15:39:49.100Z,100895.75
2023-07-10T15:42:17.484Z,100896.16
2023-07-10T15:44:47.531Z,100888.59
2023-07-10T15:47:18.823Z,100898.75
2023-07-10T15:49:46.473Z,100897.88
2023-07-10T15:52:23.432Z,100894.63
2023-07-10T15:54:51.164Z,100895.19
2023-07-10T15:57:18.897Z,100898.34
2023-07-10T15:59:47.791Z,100890.63
2023-07-10T16:02:27.717Z,100894.81
2023-07-10T16:04:56.361Z,100900.25
2023-07-10T16:07:23.910Z,100883.25
2023-07-10T16:09:51.394Z,100888.13
2023-07-10T16:12:19.092Z,100895.75
2023-07-10T16:14:47.927Z,100883.81
2023-07-10T16:17:16.683Z,100887.03
2023-07-10T16:19:44.371Z,100882.09
2023-07-10T16:22:13.268Z,100881.22
2023-07-10T16:24:41.844Z,100879.88
2023-07-10T16:27:13.433Z,100882.78
2023-07-10T16:29:41.595Z,100879.88
2023-07-10T16:32:16.372Z,100876.59
2023-07-10T16:34:43.925Z,100877.22
2023-07-10T16:37:14.489Z,100875.94
2023-07-10T16:39:42.129Z,100868.34
2023-07-10T16:42:14.148Z,100869.47
2023-07-10T16:44:41.674Z,100873.59
2023-07-10T16:47:17.526Z,100877.94
2023-07-10T16:49:45.407Z,100874.88
2023-07-10T16:52:14.031Z,100881.16
2023-07-10T16:54:41.545Z,100881.94
2023-07-10T16:57:17.245Z,100883.00
2023-07-10T16:59:44.807Z,100885.47
2023-07-10T17:02:23.155Z,100886.72
2023-07-10T17:04:50.726Z,100889.28
2023-07-10T17:07:18.288Z,100879.97
2023-07-10T17:09:45.806Z,100885.38
2023-07-10T17:12:13.419Z,100880.22
2023-07-10T17:14:40.960Z,100884.00
2023-07-10T17:17:19.201Z,100882.25
2023-07-10T17:19:49.435Z,100892.56
2023-07-10T17:22:20.504Z,100892.00
2023-07-10T17:24:48.061Z,100885.06
2023-07-10T17:27:15.570Z,100884.31
2023-07-10T17:29:43.260Z,100879.09
2023-07-10T17:32:15.626Z,100878.53
2023-07-10T17:34:43.326Z,100884.06
2023-07-10T17:37:15.318Z,100880.88
2023-07-10T17:39:43.804Z,100884.44
2023-07-10T17:42:17.756Z,100876.84
2023-07-10T17:44:45.491Z,100876.25
2023-07-10T17:47:18.172Z,100883.19
2023-07-10T17:49:46.550Z,100878.34
2023-07-10T17:52:17.802Z,100878.25
2023-07-10T17:54:45.685Z,100889.81
2023-07-10T17:57:15.288Z,100887.28
2023-07-10T17:59:43.219Z,100879.63
2023-07-10T18:02:22.619Z,100878.53
2023-07-10T18:04:51.362Z,100888.72
2023-07-10T18:07:20.486Z,100885.19
2023-07-10T18:09:47.999Z,100880.00
2023-07-10T18:12:18.633Z,100884.28
2023-07-10T18:14:48.361Z,100891.19
2023-07-10T18:17:20.253Z,100884.63
2023-07-10T18:19:48.026Z,100893.56
2023-07-10T18:22:16.214Z,100895.22
2023-07-10T18:24:45.694Z,100890.03
2023-07-10T18:27:17.741Z,100887.59
2023-07-10T18:29:46.252Z,100894.94
2023-07-10T18:32:18.315Z,100890.22
2023-07-10T18:34:47.406Z,100890.81
2023-07-10T18:37:17.321Z,100895.84
2023-07-10T18:39:46.695Z,100901.00
2023-07-10T18:42:19.503Z,100904.16
2023-07-10T18:44:47.500Z,100900.19
2023-07-10T18:47:15.697Z,100899.06
2023-07-10T18:49:43.267Z,100904.31
2023-07-10T18:52:24.878Z,100899.75
2023-07-10T18:54:53.817Z,100898.53
2023-07-10T18:57:21.492Z,100901.94
2023-07-10T18:59:49.072Z,100903.91
2023-07-10T19:02:16.657Z,100908.53
2023-07-10T19:04:44.277Z,100905.34
2023-07-10T19:07:14.185Z,100905.47
2023-07-10T19:09:45.407Z,100902.31
2023-07-10T19:12:17.056Z,100906.25
2023-07-10T19:14:45.592Z,100913.94
2023-07-10T19:17:19.473Z,100918.19
2023-07-10T19:19:50.411Z,100913.69
2023-07-10T19:22:19.007Z,100916.19
2023-07-10T19:24:47.948Z,100917.91
2023-07-10T19:27:16.756Z,100920.13
2023-07-10T19:29:44.238Z,100917.50
2023-07-10T19:32:26.547Z,100917.53
2023-07-10T19:34:54.831Z,100921.13
2023-07-10T19:37:22.370Z,100925.59
2023-07-10T19:39:49.885Z,100924.56
2023-07-10T19:42:18.804Z,100934.13
2023-07-10T19:44:49.467Z,100933.06
2023-07-10T19:47:18.569Z,100942.66
2023-07-10T19:49:46.455Z,100941.03
2023-07-10T19:52:15.587Z,100942.09
2023-07-10T19:54:44.447Z,100946.53
2023-07-10T19:57:19.091Z,100942.19
2023-07-10T19:59:46.761Z,100948.75
2023-07-10T20:02:16.076Z,100946.56
2023-07-10T20:04:43.773Z,100954.19
2023-07-10T20:07:13.145Z,100952.84
2023-07-10T20:09:40.664Z,100961.81
2023-07-10T20:12:18.972Z,100961.81
2023-07-10T20:14:46.497Z,100951.97
2023-07-10T20:17:31.098Z,100948.44
2023-07-10T20:19:59.165Z,100953.59
2023-07-10T20:22:27.071Z,100947.56
2023-07-10T20:24:55.253Z,100949.97
2023-07-10T20:27:24.258Z,100944.50
2023-07-10T20:29:51.741Z,100945.28
2023-07-10T20:32:19.790Z,100945.72
2023-07-10T20:34:49.354Z,100947.09
2023-07-10T20:37:19.954Z,100943.00
2023-07-10T20:39:47.433Z,100947.00
2023-07-10T20:42:16.390Z,100945.00
2023-07-10T20:44:47.428Z,100940.34
2023-07-10T20:47:17.078Z,100936.53
2023-07-10T20:49:46.248Z,100940.28
2023-07-10T20:52:15.599Z,100939.56
2023-07-10T20:54:43.488Z,100944.94
2023-07-10T20:57:14.380Z,100943.75
2023-07-10T20:59:42.539Z,100946.13
2023-07-10T21:02:22.443Z,100946.59
2023-07-10T21:04:50.175Z,100939.22
2023-07-10T21:07:19.741Z,100942.66
2023-07-10T21:09:49.894Z,100938.31
2023-07-10T21:12:19.822Z,100946.56
2023-07-10T21:14:48.044Z,100946.88
2023-07-10T21:17:19.322Z,100941.16
2023-07-10T21:19:46.962Z,100941.06
2023-07-10T21:22:15.373Z,100942.22
2023-07-10T21:24:44.072Z,100936.38
2023-07-10T21:27:25.892Z,100937.03
2023-07-10T21:29:54.493Z,100943.16
2023-07-10T21:32:25.821Z,100940.31
2023-07-10T21:34:54.457Z,100941.41
2023-07-10T21:37:22.053Z,100939.78
2023-07-10T21:39:49.616Z,100947.16
2023-07-10T21:42:20.833Z,100937.19
2023-07-10T21:44:48.628Z,100938.44
2023-07-10T21:47:16.166Z,100939.78
2023-07-10T21:49:45.098Z,100938.00
2023-07-10T21:52:12.614Z,100945.09
2023-07-10T21:54:40.140Z,100944.59
2023-07-10T21:57:07.822Z,100937.88
2023-07-10T21:59:37.817Z,100944.94
2023-07-10T22:02:05.576Z,100944.31
2023-07-10T22:04:33.135Z,100943.94
2023-07-10T22:07:01.980Z,100948.53
2023-07-10T22:09:29.468Z,100940.88
2023-07-10T22:11:57.000Z,100940.38
2023-07-10T22:14:24.832Z,100946.25
2023-07-10T22:16:59.379Z,100940.75
2023-07-10T22:19:33.391Z,100934.69
2023-07-10T22:22:02.368Z,100937.91
2023-07-10T22:24:30.005Z,100936.06
2023-07-10T22:26:57.524Z,100934.69
2023-07-10T22:29:25.147Z,100922.22
2023-07-10T22:31:52.720Z,100928.19
2023-07-10T22:34:20.268Z,100928.28
2023-07-10T22:36:47.767Z,100923.97
2023-07-10T22:39:16.614Z,100922.03
2023-07-10T22:41:44.665Z,100926.03
2023-07-10T22:44:15.907Z,100926.59
2023-07-10T22:46:45.748Z,100918.94
2023-07-10T22:49:14.403Z,100911.53
2023-07-10T22:51:42.592Z,100910.88
2023-07-10T22:54:11.022Z,100911.03
2023-07-10T22:56:42.858Z,100907.94
2023-07-10T22:59:12.590Z,100902.66
2023-07-10T23:01:40.181Z,100905.56
2023-07-10T23:04:07.699Z,100900.31
2023-07-10T23:06:35.364Z,100908.44
2023-07-10T23:09:02.938Z,100885.97
2023-07-10T23:11:30.570Z,100892.03
2023-07-10T23:13:59.557Z,100899.00
2023-07-10T23:16:27.278Z,100888.91
2023-07-10T23:18:57.220Z,100896.78
2023-07-10T23:21:25.753Z,100890.16
2023-07-10T23:23:54.020Z,100885.94
2023-07-10T23:26:24.125Z,100881.13
2023-07-10T23:28:52.145Z,100881.31
2023-07-10T23:31:24.454Z,100883.50
2023-07-10T23:33:52.592Z,100885.06
2023-07-10T23:36:21.348Z,100882.22
2023-07-10T23:38:49.191Z,100879.16
2023-07-10T23:41:18.087Z,100878.69
2023-07-10T23:43:46.252Z,100892.22
2023-07-10T23:46:14.411Z,100885.97
2023-07-10T23:48:44.441Z,100880.31
2023-07-10T23:51:12.584Z,100891.03
2023-07-10T23:53:40.679Z,100884.47
2023-07-10T23:56:10.115Z,100889.84
2023-07-10T23:58:38.389Z,100891.28
